Time;durP1;ratioP1;P1;durP2;ratioP2;P2;SDS_P1;SDS_P2;PMS_P1;PMS_P2;Temp;Humidity;BMP_temperature;BMP_pressure;BME280_temperature;BME280_humidity;BME280_pressure;Samples;Min_cycle;Max_cycle;Signal;HPM_P1;HPM_P2
2023/12/16 00:00:16;;;;;;;11.73;6.10;;;7.50;84.90;;;;;;5037784;28;20313;-75
2023/12/16 00:02:42;;;;;;;12.93;6.57;;;7.50;85.00;;;;;;5036909;28;20176;-74
2023/12/16 00:05:08;;;;;;;12.90;6.67;;;7.60;85.20;;;;;;5035313;28;20191;-73
2023/12/16 00:07:34;;;;;;;8.53;5.87;;;7.50;85.00;;;;;;5041661;28;20196;-74
2023/12/16 00:10:00;;;;;;;9.23;5.07;;;7.50;85.20;;;;;;5036496;28;20474;-74
2023/12/16 00:12:25;;;;;;;11.87;6.23;;;7.50;85.30;;;;;;5038011;28;20434;-74
2023/12/16 00:14:51;;;;;;;10.60;5.93;;;7.50;85.30;;;;;;5034788;28;20996;-74
2023/12/16 00:17:16;;;;;;;12.10;7.90;;;7.50;85.30;;;;;;5042714;28;20181;-74
2023/12/16 00:19:42;;;;;;;13.80;7.60;;;7.50;85.20;;;;;;5037539;28;20737;-74
2023/12/16 00:22:07;;;;;;;16.67;7.47;;;7.50;85.20;;;;;;5037752;28;20652;-74
2023/12/16 00:24:33;;;;;;;14.57;7.57;;;7.40;85.00;;;;;;5046599;28;20560;-74
2023/12/16 00:26:58;;;;;;;15.43;8.50;;;7.20;85.50;;;;;;5045838;28;20182;-76
2023/12/16 00:29:24;;;;;;;14.27;8.17;;;7.10;85.60;;;;;;5043832;28;20185;-74
2023/12/16 00:31:50;;;;;;;11.63;7.73;;;7.10;85.90;;;;;;5056534;28;20230;-74
2023/12/16 00:34:15;;;;;;;13.93;8.43;;;7.10;86.00;;;;;;5047276;28;20192;-74
2023/12/16 00:36:41;;;;;;;13.90;8.03;;;7.20;86.20;;;;;;5040321;28;20189;-74
2023/12/16 00:39:07;;;;;;;17.90;10.10;;;7.10;86.00;;;;;;5042730;28;20220;-74
2023/12/16 00:41:33;;;;;;;18.63;9.03;;;7.10;86.20;;;;;;5038743;28;20494;-74
2023/12/16 00:43:59;;;;;;;17.13;7.90;;;7.00;86.20;;;;;;5042348;28;20431;-74
2023/12/16 00:46:24;;;;;;;11.87;6.63;;;7.00;86.30;;;;;;5030366;28;20717;-74
2023/12/16 00:48:50;;;;;;;12.20;6.27;;;7.00;86.60;;;;;;5037517;28;20185;-76
2023/12/16 00:51:16;;;;;;;15.60;6.43;;;7.10;86.60;;;;;;5031210;28;20213;-75
2023/12/16 00:53:41;;;;;;;9.90;5.33;;;7.00;86.30;;;;;;5034807;28;20223;-75
2023/12/16 00:56:08;;;;;;;9.63;5.70;;;7.10;86.30;;;;;;5045433;28;20200;-76
2023/12/16 00:58:34;;;;;;;13.37;6.90;;;7.10;86.50;;;;;;5038336;28;20216;-74
2023/12/16 01:01:00;;;;;;;10.40;6.50;;;7.10;86.30;;;;;;5034780;28;20583;-75
2023/12/16 01:03:25;;;;;;;10.03;6.40;;;7.00;86.20;;;;;;5035821;28;20987;-75
2023/12/16 01:05:51;;;;;;;10.80;6.20;;;7.00;86.00;;;;;;5042942;28;20196;-75
2023/12/16 01:08:16;;;;;;;13.80;6.50;;;7.00;86.00;;;;;;5037853;28;20333;-74
2023/12/16 01:10:42;;;;;;;12.03;5.77;;;7.00;86.00;;;;;;5038246;28;20254;-76
2023/12/16 01:13:07;;;;;;;12.27;7.70;;;7.10;86.20;;;;;;5045560;28;20195;-75
2023/12/16 01:15:33;;;;;;;12.60;6.73;;;7.20;86.20;;;;;;5046921;28;20533;-73
2023/12/16 01:17:58;;;;;;;13.07;8.00;;;7.20;86.20;;;;;;5037031;28;20205;-73
2023/12/16 01:20:24;;;;;;;15.17;8.03;;;7.20;86.00;;;;;;5044152;28;20208;-73
2023/12/16 01:22:50;;;;;;;13.50;7.70;;;7.10;85.90;;;;;;5044537;28;20218;-74
2023/12/16 01:25:15;;;;;;;18.10;8.17;;;7.00;86.00;;;;;;5043905;28;20259;-75
2023/12/16 01:27:42;;;;;;;14.37;8.57;;;6.90;86.30;;;;;;5042897;28;20281;-75
2023/12/16 01:30:08;;;;;;;14.23;7.60;;;6.90;86.60;;;;;;5040816;28;20574;-75
2023/12/16 01:32:34;;;;;;;15.13;8.40;;;6.80;86.90;;;;;;5035785;28;20435;-75
2023/12/16 01:35:00;;;;;;;13.20;8.70;;;6.80;87.00;;;;;;5044885;28;20423;-74
2023/12/16 01:37:26;;;;;;;13.87;8.60;;;6.80;86.90;;;;;;5041174;28;20193;-75
2023/12/16 01:39:52;;;;;;;17.60;8.90;;;6.80;87.00;;;;;;5039737;28;20246;-76
2023/12/16 01:42:18;;;;;;;16.07;8.63;;;6.80;87.10;;;;;;5034848;28;20442;-74
2023/12/16 01:44:43;;;;;;;16.70;8.30;;;6.90;87.10;;;;;;5042564;28;21006;-75
2023/12/16 01:47:10;;;;;;;15.40;8.80;;;6.90;86.90;;;;;;5047383;28;20195;-74
2023/12/16 01:49:37;;;;;;;17.70;9.23;;;6.90;86.80;;;;;;5038170;28;20761;-73
2023/12/16 01:52:04;;;;;;;14.73;9.20;;;6.90;86.80;;;;;;5042963;28;20466;-73
2023/12/16 01:54:31;;;;;;;14.30;7.70;;;6.90;86.80;;;;;;5042650;28;20450;-73
2023/12/16 01:56:58;;;;;;;14.50;9.30;;;6.80;86.80;;;;;;5045586;28;20446;-74
2023/12/16 01:59:26;;;;;;;16.93;8.30;;;6.70;87.00;;;;;;5039526;28;20907;-73
2023/12/16 02:01:52;;;;;;;18.53;9.73;;;6.60;87.40;;;;;;5038590;28;20443;-73
2023/12/16 02:04:19;;;;;;;18.27;9.67;;;6.50;87.60;;;;;;5045594;28;20432;-75
2023/12/16 02:06:44;;;;;;;17.80;9.30;;;6.60;87.80;;;;;;5043131;28;20213;-74
2023/12/16 02:09:13;;;;;;;20.00;9.63;;;6.60;88.00;;;;;;5047226;28;20465;-76
2023/12/16 02:11:38;;;;;;;20.27;11.27;;;6.70;88.00;;;;;;5038714;28;20224;-75
2023/12/16 02:14:04;;;;;;;16.13;9.17;;;6.60;87.80;;;;;;5040368;28;20857;-75
2023/12/16 02:16:29;;;;;;;16.57;8.80;;;6.70;88.00;;;;;;5033674;28;20227;-75
2023/12/16 02:18:55;;;;;;;17.27;9.70;;;6.70;88.10;;;;;;5040249;28;20251;-74
2023/12/16 02:21:20;;;;;;;17.70;8.77;;;6.80;88.40;;;;;;5057173;28;20217;-74
2023/12/16 02:23:46;;;;;;;11.10;8.40;;;6.90;88.40;;;;;;5037143;28;20184;-74
2023/12/16 02:26:12;;;;;;;15.77;8.40;;;6.90;87.80;;;;;;5052244;28;20187;-73
2023/12/16 02:28:39;;;;;;;15.60;7.10;;;6.90;87.30;;;;;;5044857;28;20658;-74
2023/12/16 02:31:05;;;;;;;16.33;8.67;;;7.00;87.00;;;;;;5041171;28;20229;-74
2023/12/16 02:33:30;;;;;;;23.83;10.97;;;7.00;86.80;;;;;;5048962;28;20425;-73
2023/12/16 02:35:56;;;;;;;24.40;11.33;;;7.00;86.60;;;;;;5045688;28;20285;-73
2023/12/16 02:38:22;;;;;;;14.03;8.27;;;7.00;86.60;;;;;;5051479;28;20188;-73
2023/12/16 02:40:48;;;;;;;14.40;8.70;;;7.10;86.80;;;;;;5039121;28;20352;-74
2023/12/16 02:43:14;;;;;;;17.00;9.03;;;7.10;86.80;;;;;;5045577;28;21099;-74
2023/12/16 02:45:40;;;;;;;16.20;9.13;;;7.10;86.80;;;;;;5054256;28;20970;-73
2023/12/16 02:48:05;;;;;;;17.57;9.97;;;7.00;86.50;;;;;;5049556;28;20195;-74
2023/12/16 02:50:31;;;;;;;15.23;8.60;;;6.80;86.60;;;;;;5044269;28;20335;-74
2023/12/16 02:52:57;;;;;;;18.60;9.40;;;6.80;86.80;;;;;;5037917;28;20185;-73
2023/12/16 02:55:22;;;;;;;15.67;8.80;;;6.90;86.90;;;;;;5040918;28;20660;-73
2023/12/16 02:57:48;;;;;;;17.80;10.70;;;7.00;87.00;;;;;;5042661;28;20196;-73
2023/12/16 03:00:14;;;;;;;16.23;9.70;;;7.10;86.80;;;;;;5045682;28;20288;-74
2023/12/16 03:02:40;;;;;;;15.13;8.03;;;7.00;86.60;;;;;;5038462;28;20295;-73
2023/12/16 03:05:06;;;;;;;19.50;10.03;;;7.10;86.50;;;;;;5044771;28;20505;-73
2023/12/16 03:07:32;;;;;;;11.80;7.53;;;7.00;86.30;;;;;;5040323;28;20242;-74
2023/12/16 03:09:58;;;;;;;13.83;7.13;;;7.00;86.30;;;;;;5050458;28;20805;-73
2023/12/16 03:12:24;;;;;;;13.23;8.50;;;6.90;86.50;;;;;;5052688;28;20470;-73
2023/12/16 03:14:50;;;;;;;11.43;7.10;;;6.90;86.60;;;;;;5042522;28;20600;-73
2023/12/16 03:17:16;;;;;;;15.07;7.67;;;7.00;86.80;;;;;;5044728;28;20827;-73
2023/12/16 03:19:42;;;;;;;17.63;8.70;;;6.90;86.50;;;;;;5066500;28;20563;-72
2023/12/16 03:22:08;;;;;;;17.07;9.80;;;6.80;86.30;;;;;;5045839;28;20560;-74
2023/12/16 03:24:33;;;;;;;16.90;9.10;;;6.70;86.50;;;;;;5042703;28;20192;-73
2023/12/16 03:26:59;;;;;;;16.73;9.10;;;6.60;86.80;;;;;;5044839;28;20426;-73
2023/12/16 03:29:24;;;;;;;13.90;8.33;;;6.60;86.90;;;;;;5045178;28;20579;-74
2023/12/16 03:31:50;;;;;;;13.93;7.90;;;6.60;87.00;;;;;;5038947;28;20213;-73
2023/12/16 03:34:16;;;;;;;13.07;8.60;;;6.60;87.00;;;;;;5042497;28;20173;-74
2023/12/16 03:36:41;;;;;;;15.53;8.20;;;6.60;87.10;;;;;;5042985;28;20184;-73
2023/12/16 03:39:07;;;;;;;14.63;7.47;;;6.50;87.00;;;;;;5044920;28;20184;-73
2023/12/16 03:41:34;;;;;;;17.20;8.10;;;6.40;87.10;;;;;;5039336;28;20711;-73
2023/12/16 03:44:00;;;;;;;14.47;8.00;;;6.40;87.40;;;;;;5042141;28;20450;-73
2023/12/16 03:46:26;;;;;;;13.57;7.63;;;6.40;87.60;;;;;;5042763;28;20426;-73
2023/12/16 03:48:52;;;;;;;11.60;7.30;;;6.40;87.60;;;;;;5056717;28;20438;-74
2023/12/16 03:51:21;;;;;;;13.90;7.73;;;6.50;87.70;;;;;;5036623;28;21031;-74
2023/12/16 03:53:46;;;;;;;14.13;7.90;;;6.50;87.60;;;;;;5032553;28;20431;-72
2023/12/16 03:56:12;;;;;;;12.47;7.60;;;6.40;87.30;;;;;;5046170;28;20456;-73
2023/12/16 03:58:37;;;;;;;12.40;7.20;;;6.40;87.40;;;;;;5039172;28;20189;-74
2023/12/16 04:01:04;;;;;;;13.27;8.07;;;6.40;87.40;;;;;;5039594;28;20570;-73
2023/12/16 04:03:30;;;;;;;12.10;7.63;;;6.50;87.60;;;;;;5042408;28;20196;-74
2023/12/16 04:05:55;;;;;;;11.87;7.10;;;6.50;87.40;;;;;;5045758;28;20424;-73
2023/12/16 04:08:21;;;;;;;13.80;7.47;;;6.60;87.40;;;;;;5066718;28;20193;-74
2023/12/16 04:10:47;;;;;;;11.20;7.83;;;6.70;87.10;;;;;;5046219;28;20225;-73
2023/12/16 04:13:14;;;;;;;14.27;7.07;;;6.60;87.00;;;;;;5043837;28;20211;-73
2023/12/16 04:15:40;;;;;;;11.70;6.80;;;6.70;87.00;;;;;;5046404;28;20181;-74
2023/12/16 04:18:05;;;;;;;11.70;6.67;;;6.80;86.80;;;;;;5043725;28;20772;-73
2023/12/16 04:20:31;;;;;;;14.30;7.63;;;6.70;86.60;;;;;;5041310;28;20299;-73
2023/12/16 04:22:57;;;;;;;14.23;7.83;;;6.70;86.50;;;;;;5046232;28;20197;-73
2023/12/16 04:25:22;;;;;;;16.90;7.87;;;6.70;86.60;;;;;;5041217;28;20192;-74
2023/12/16 04:27:48;;;;;;;13.07;7.27;;;6.70;86.60;;;;;;5038470;28;20653;-73
2023/12/16 04:30:13;;;;;;;11.93;6.37;;;6.80;86.50;;;;;;5040460;28;20219;-73
2023/12/16 04:32:39;;;;;;;16.10;7.67;;;6.70;86.20;;;;;;5037543;28;20248;-74
2023/12/16 04:35:05;;;;;;;14.50;6.83;;;6.60;86.20;;;;;;5040542;28;20231;-74
2023/12/16 04:37:31;;;;;;;14.77;7.07;;;6.60;86.30;;;;;;5039081;28;20184;-74
2023/12/16 04:39:56;;;;;;;14.53;7.77;;;6.50;86.50;;;;;;5040974;28;20473;-73
2023/12/16 04:42:22;;;;;;;13.60;7.73;;;6.50;86.50;;;;;;5038677;28;20192;-75
2023/12/16 04:44:47;;;;;;;12.90;7.30;;;6.40;86.60;;;;;;5040094;28;20629;-74
2023/12/16 04:47:13;;;;;;;9.90;6.40;;;6.40;86.80;;;;;;5039498;28;20689;-74
2023/12/16 04:49:40;;;;;;;12.77;7.00;;;6.40;86.90;;;;;;5045310;28;20726;-74
2023/12/16 04:52:06;;;;;;;9.80;5.70;;;6.50;86.90;;;;;;5042305;28;20220;-74
2023/12/16 04:54:31;;;;;;;10.40;6.77;;;6.40;86.80;;;;;;5041160;28;20454;-72
2023/12/16 04:56:57;;;;;;;12.93;6.67;;;6.40;86.60;;;;;;5039934;28;20322;-73
2023/12/16 04:59:23;;;;;;;12.33;7.20;;;6.40;86.60;;;;;;5040523;28;20196;-76
2023/12/16 05:01:48;;;;;;;13.80;7.20;;;6.40;86.80;;;;;;5041482;28;20289;-73
2023/12/16 05:04:14;;;;;;;13.93;7.37;;;6.30;86.80;;;;;;5036114;28;20188;-73
2023/12/16 05:06:39;;;;;;;14.07;7.83;;;6.30;86.80;;;;;;5045106;28;20181;-74
2023/12/16 05:09:12;;;;;;;11.70;6.80;;;6.30;86.90;;;;;;5038116;28;20185;-73
2023/12/16 05:11:38;;;;;;;14.03;7.13;;;6.40;87.10;;;;;;5032684;28;20296;-74
2023/12/16 05:14:03;;;;;;;9.70;6.67;;;6.40;87.00;;;;;;5037129;28;20850;-73
2023/12/16 05:16:29;;;;;;;10.90;7.17;;;6.40;86.80;;;;;;5038177;28;20424;-74
2023/12/16 05:18:55;;;;;;;13.67;7.40;;;6.40;86.80;;;;;;5039868;28;20207;-74
2023/12/16 05:21:21;;;;;;;16.57;7.17;;;6.40;86.90;;;;;;5035376;28;20615;-72
2023/12/16 05:23:46;;;;;;;10.17;6.17;;;6.50;86.90;;;;;;5042687;28;20192;-72
2023/12/16 05:26:12;;;;;;;12.93;6.47;;;6.50;87.00;;;;;;5042720;28;20523;-73
2023/12/16 05:28:37;;;;;;;13.13;6.47;;;6.60;87.00;;;;;;5045571;28;20624;-73
2023/12/16 05:31:03;;;;;;;11.80;6.93;;;6.70;87.00;;;;;;5037530;28;20239;-74
2023/12/16 05:33:29;;;;;;;9.67;7.10;;;6.70;86.60;;;;;;5046429;28;20694;-75
2023/12/16 05:35:54;;;;;;;11.53;6.53;;;6.60;86.60;;;;;;5041790;28;20523;-75
2023/12/16 05:38:20;;;;;;;12.70;6.20;;;6.60;86.50;;;;;;5041103;28;20195;-75
2023/12/16 05:40:46;;;;;;;11.77;6.60;;;6.50;86.50;;;;;;5042981;28;20219;-73
2023/12/16 05:43:11;;;;;;;14.83;7.23;;;6.50;86.30;;;;;;5051547;28;20243;-75
2023/12/16 05:45:37;;;;;;;17.23;7.20;;;6.50;86.20;;;;;;5041635;28;20193;-75
2023/12/16 05:48:02;;;;;;;11.00;6.30;;;6.50;86.30;;;;;;5033601;28;20448;-73
2023/12/16 05:50:28;;;;;;;12.73;6.50;;;6.60;86.30;;;;;;5043734;28;20213;-75
2023/12/16 05:52:53;;;;;;;13.00;6.40;;;6.60;86.30;;;;;;5048564;28;20625;-72
2023/12/16 05:55:19;;;;;;;10.57;5.60;;;6.50;85.50;;;;;;5045860;28;20215;-73
2023/12/16 05:57:45;;;;;;;13.30;6.70;;;6.40;85.60;;;;;;5036533;28;20196;-72
2023/12/16 06:00:10;;;;;;;9.20;6.10;;;6.40;85.70;;;;;;5044359;28;20255;-74
2023/12/16 06:02:36;;;;;;;12.13;5.73;;;6.30;85.90;;;;;;5041899;28;20189;-74
2023/12/16 06:05:03;;;;;;;11.30;6.17;;;6.30;86.00;;;;;;5040919;28;20462;-74
2023/12/16 06:07:29;;;;;;;12.30;6.33;;;6.30;86.00;;;;;;5045927;28;20200;-73
2023/12/16 06:09:55;;;;;;;11.20;6.47;;;6.30;86.20;;;;;;5041328;28;20876;-74
2023/12/16 06:12:20;;;;;;;16.90;6.20;;;6.30;86.30;;;;;;5039767;28;20850;-74
2023/12/16 06:14:46;;;;;;;12.57;6.67;;;6.20;86.30;;;;;;5040407;28;20613;-73
2023/12/16 06:17:12;;;;;;;9.90;6.23;;;6.30;86.50;;;;;;5044055;28;20177;-73
2023/12/16 06:19:38;;;;;;;14.60;5.53;;;6.30;86.60;;;;;;5039448;28;21829;-73
2023/12/16 06:22:03;;;;;;;9.93;6.10;;;6.40;86.30;;;;;;5041580;28;20195;-74
2023/12/16 06:24:29;;;;;;;13.27;6.20;;;6.50;86.00;;;;;;5043755;28;20189;-73
2023/12/16 06:26:55;;;;;;;9.63;5.63;;;6.40;85.70;;;;;;5046990;28;20207;-74
2023/12/16 06:29:20;;;;;;;9.33;5.97;;;6.30;85.60;;;;;;5045122;28;20193;-75
2023/12/16 06:31:46;;;;;;;8.93;5.97;;;6.40;85.90;;;;;;5042865;28;20232;-73
2023/12/16 06:34:11;;;;;;;11.47;5.93;;;6.50;85.30;;;;;;5050171;28;20215;-73
2023/12/16 06:36:37;;;;;;;12.97;6.13;;;6.40;85.00;;;;;;5043373;28;20223;-74
2023/12/16 06:39:03;;;;;;;9.40;6.03;;;6.40;85.00;;;;;;5035670;28;20286;-73
2023/12/16 06:41:30;;;;;;;10.33;4.73;;;6.30;85.20;;;;;;5038395;28;20212;-74
2023/12/16 06:43:55;;;;;;;8.60;5.90;;;6.20;84.70;;;;;;5039296;28;20997;-74
2023/12/16 06:46:23;;;;;;;10.20;5.73;;;6.10;85.30;;;;;;5040668;28;20530;-73
2023/12/16 06:48:49;;;;;;;9.10;5.50;;;6.00;85.50;;;;;;5042065;28;20196;-74
2023/12/16 06:51:14;;;;;;;9.50;5.53;;;6.00;85.70;;;;;;5038471;28;20478;-74
2023/12/16 06:53:40;;;;;;;12.27;6.53;;;6.00;86.00;;;;;;5048964;28;20263;-73
2023/12/16 06:56:07;;;;;;;12.30;6.57;;;6.00;86.00;;;;;;5043645;28;20693;-73
2023/12/16 06:58:33;;;;;;;11.80;6.57;;;6.00;86.00;;;;;;5043489;28;20189;-75
2023/12/16 07:00:59;;;;;;;11.97;6.97;;;6.00;86.20;;;;;;5039456;28;20529;-74
2023/12/16 07:03:24;;;;;;;10.37;6.63;;;6.00;86.00;;;;;;5044444;28;20212;-75
2023/12/16 07:05:50;;;;;;;14.17;7.37;;;6.00;86.20;;;;;;5040723;28;20264;-75
2023/12/16 07:08:15;;;;;;;13.93;6.77;;;6.00;86.20;;;;;;5044168;28;20185;-74
2023/12/16 07:10:41;;;;;;;13.03;7.27;;;6.00;86.30;;;;;;5065259;28;20220;-75
2023/12/16 07:13:07;;;;;;;18.60;7.50;;;6.00;86.20;;;;;;5052002;28;20193;-73
2023/12/16 07:15:32;;;;;;;11.80;6.20;;;6.00;86.20;;;;;;5043525;28;20632;-75
2023/12/16 07:17:58;;;;;;;11.83;6.73;;;6.00;86.20;;;;;;5041528;28;20197;-76
2023/12/16 07:20:24;;;;;;;10.03;5.90;;;5.90;86.30;;;;;;5051261;28;20590;-74
2023/12/16 07:22:49;;;;;;;12.13;7.00;;;5.90;86.30;;;;;;5043990;28;20205;-74
2023/12/16 07:25:15;;;;;;;10.83;6.73;;;5.90;86.20;;;;;;5040865;28;20669;-76
2023/12/16 07:27:40;;;;;;;13.20;6.60;;;5.80;86.20;;;;;;5040978;28;20187;-75
2023/12/16 07:30:06;;;;;;;13.20;7.73;;;5.80;86.30;;;;;;5040396;28;20235;-76
2023/12/16 07:32:32;;;;;;;15.83;6.83;;;5.80;86.20;;;;;;5037852;28;20224;-76
2023/12/16 07:34:58;;;;;;;9.53;6.00;;;5.80;86.50;;;;;;5037607;28;20849;-76
2023/12/16 07:37:23;;;;;;;11.30;7.13;;;5.90;86.50;;;;;;5047485;28;20184;-73
2023/12/16 07:39:49;;;;;;;13.00;7.10;;;5.80;86.50;;;;;;5033396;28;20220;-74
2023/12/16 07:42:14;;;;;;;10.53;6.20;;;5.90;86.60;;;;;;5039674;28;20211;-74
2023/12/16 07:44:40;;;;;;;9.83;6.70;;;6.00;86.20;;;;;;5041374;28;20211;-74
2023/12/16 07:47:06;;;;;;;13.30;7.10;;;5.90;86.00;;;;;;5047366;28;20178;-74
2023/12/16 07:49:31;;;;;;;10.30;6.70;;;5.90;86.20;;;;;;5065707;28;20204;-73
2023/12/16 07:51:57;;;;;;;13.77;6.70;;;5.80;85.70;;;;;;5049049;28;20361;-74
2023/12/16 07:54:24;;;;;;;12.03;6.47;;;5.90;85.90;;;;;;5043603;28;20229;-74
2023/12/16 07:56:50;;;;;;;9.17;6.20;;;6.00;85.90;;;;;;5045873;28;20423;-73
2023/12/16 07:59:16;;;;;;;11.50;6.03;;;5.90;85.60;;;;;;5044645;28;20414;-75
2023/12/16 08:01:42;;;;;;;11.57;6.30;;;5.90;85.30;;;;;;5037844;28;20454;-74
2023/12/16 08:04:08;;;;;;;10.10;6.00;;;5.90;85.60;;;;;;5044128;28;20423;-75
2023/12/16 08:06:33;;;;;;;9.27;5.93;;;6.00;85.60;;;;;;5062017;28;20559;-74
2023/12/16 08:08:59;;;;;;;11.50;5.90;;;6.00;84.90;;;;;;5042924;28;20915;-75
2023/12/16 08:11:24;;;;;;;10.43;5.93;;;6.00;84.90;;;;;;5037967;28;20225;-73
2023/12/16 08:13:50;;;;;;;10.63;5.90;;;6.10;84.70;;;;;;5047635;28;20326;-73
2023/12/16 08:16:16;;;;;;;16.60;6.60;;;6.20;84.40;;;;;;5043848;28;20181;-74
2023/12/16 08:18:41;;;;;;;8.20;5.40;;;6.20;84.40;;;;;;5042182;28;20188;-75
2023/12/16 08:21:07;;;;;;;14.77;5.90;;;6.20;83.70;;;;;;5036576;28;20213;-74
2023/12/16 08:23:32;;;;;;;15.40;6.23;;;6.10;83.70;;;;;;5043042;28;20234;-74
2023/12/16 08:25:58;;;;;;;12.00;5.63;;;6.10;84.10;;;;;;5033091;28;20285;-74
2023/12/16 08:28:24;;;;;;;10.43;6.47;;;6.10;84.30;;;;;;5045196;28;20181;-76
2023/12/16 08:30:50;;;;;;;9.60;6.00;;;6.00;84.30;;;;;;5037325;28;20408;-74
2023/12/16 08:33:16;;;;;;;13.63;7.33;;;6.00;84.40;;;;;;5040747;28;20270;-75
2023/12/16 08:35:45;;;;;;;13.83;6.77;;;6.10;84.60;;;;;;5037454;28;21091;-74
2023/12/16 08:38:11;;;;;;;13.10;6.90;;;6.10;84.70;;;;;;5046019;28;20450;-74
2023/12/16 08:40:37;;;;;;;12.80;6.20;;;6.20;84.70;;;;;;5036451;28;20470;-74
2023/12/16 08:43:02;;;;;;;10.43;6.17;;;6.20;84.40;;;;;;5037095;28;20810;-74
2023/12/16 08:45:28;;;;;;;10.30;5.43;;;6.30;83.80;;;;;;5041636;28;20185;-74
2023/12/16 08:47:54;;;;;;;12.47;5.23;;;6.20;83.60;;;;;;5042502;28;20285;-73
2023/12/16 08:50:22;;;;;;;11.00;6.00;;;6.20;83.10;;;;;;5037048;28;20624;-73
2023/12/16 08:52:48;;;;;;;7.90;5.53;;;6.20;83.30;;;;;;5051469;28;20239;-74
2023/12/16 08:55:13;;;;;;;14.27;6.23;;;6.10;83.40;;;;;;5041092;28;20831;-74
2023/12/16 08:57:39;;;;;;;9.47;5.67;;;6.10;83.70;;;;;;5041735;28;20598;-74
2023/12/16 09:00:05;;;;;;;8.83;5.67;;;6.10;83.80;;;;;;5041199;28;20228;-74
2023/12/16 09:02:31;;;;;;;10.93;5.50;;;6.20;83.80;;;;;;5041755;28;20179;-75
2023/12/16 09:04:56;;;;;;;8.37;5.23;;;6.20;84.00;;;;;;5044499;28;20415;-75
2023/12/16 09:07:22;;;;;;;11.30;6.10;;;6.20;83.60;;;;;;5044914;28;20191;-75
2023/12/16 09:09:47;;;;;;;11.30;6.00;;;6.30;83.70;;;;;;5041751;28;20232;-74
2023/12/16 09:12:13;;;;;;;11.80;5.87;;;6.40;83.40;;;;;;5036438;28;20216;-75
2023/12/16 09:14:39;;;;;;;13.97;6.83;;;6.40;83.10;;;;;;5041981;28;20661;-75
2023/12/16 09:17:04;;;;;;;11.53;6.20;;;6.30;83.30;;;;;;5039517;28;20207;-75
2023/12/16 09:19:30;;;;;;;12.10;6.73;;;6.30;83.40;;;;;;5049113;28;20187;-74
2023/12/16 09:21:56;;;;;;;10.77;6.60;;;6.40;83.70;;;;;;5032291;28;20763;-75
2023/12/16 09:24:21;;;;;;;8.40;6.00;;;6.50;83.70;;;;;;5037601;28;20700;-75
2023/12/16 09:26:47;;;;;;;10.00;5.43;;;6.50;83.60;;;;;;5038255;28;20193;-75
2023/12/16 09:29:13;;;;;;;12.03;6.00;;;6.60;83.80;;;;;;5042409;28;20192;-74
2023/12/16 09:31:39;;;;;;;11.33;6.10;;;6.70;83.10;;;;;;5046994;28;20544;-73
2023/12/16 09:34:05;;;;;;;10.03;5.67;;;6.70;82.80;;;;;;5041665;28;21125;-74
2023/12/16 09:36:31;;;;;;;13.33;6.53;;;6.80;83.10;;;;;;5047838;28;20415;-74
2023/12/16 09:38:57;;;;;;;11.03;5.70;;;6.90;83.30;;;;;;5044650;28;20196;-77
2023/12/16 09:41:33;;;;;;;9.77;5.33;;;7.00;83.30;;;;;;5042102;28;20209;-76
2023/12/16 09:43:59;;;;;;;9.33;5.97;;;7.10;82.80;;;;;;5046637;28;20430;-75
2023/12/16 09:46:28;;;;;;;9.60;5.40;;;7.20;82.10;;;;;;5054671;28;20426;-77
2023/12/16 09:48:54;;;;;;;10.60;5.30;;;7.20;81.50;;;;;;5053332;28;20425;-74
2023/12/16 09:51:21;;;;;;;10.73;6.47;;;7.20;81.40;;;;;;5051551;28;20551;-75
2023/12/16 09:53:48;;;;;;;10.10;6.40;;;7.20;80.80;;;;;;5045139;28;21011;-74
2023/12/16 09:56:16;;;;;;;11.47;5.80;;;7.40;80.60;;;;;;5048171;28;20447;-74
2023/12/16 09:58:44;;;;;;;9.70;6.00;;;7.40;80.20;;;;;;5043104;28;20415;-76
2023/12/16 10:01:11;;;;;;;12.17;5.80;;;7.30;79.70;;;;;;5039978;28;21145;-73
2023/12/16 10:03:38;;;;;;;13.27;6.20;;;7.20;80.00;;;;;;5051846;28;20427;-75
2023/12/16 10:06:05;;;;;;;9.87;6.23;;;7.40;80.00;;;;;;5042379;28;20443;-77
2023/12/16 10:08:31;;;;;;;11.03;5.87;;;7.50;80.00;;;;;;5052335;28;20548;-77
2023/12/16 10:11:00;;;;;;;10.87;6.23;;;7.70;80.00;;;;;;5042079;28;20582;-78
2023/12/16 10:13:30;;;;;;;14.63;5.73;;;7.80;79.50;;;;;;5044861;28;20192;-76
2023/12/16 10:15:57;;;;;;;13.10;6.57;;;7.90;79.50;;;;;;5043777;28;20546;-77
2023/12/16 10:18:23;;;;;;;12.00;6.20;;;8.10;79.20;;;;;;5049586;28;20430;-77
2023/12/16 10:20:48;;;;;;;12.20;6.13;;;8.20;78.70;;;;;;5046593;28;20550;-76
2023/12/16 10:23:16;;;;;;;11.57;6.43;;;8.30;78.10;;;;;;5053152;28;20472;-76
2023/12/16 10:25:42;;;;;;;10.87;6.10;;;8.40;78.10;;;;;;5049314;28;20424;-77
2023/12/16 10:28:09;;;;;;;11.03;5.63;;;8.50;77.80;;;;;;5070043;28;20487;-74
2023/12/16 10:30:34;;;;;;;11.77;6.60;;;8.60;77.60;;;;;;5057519;28;20685;-77
2023/12/16 10:33:06;;;;;;;11.70;6.47;;;8.60;77.30;;;;;;5050937;28;20446;-76
2023/12/16 10:35:32;;;;;;;20.83;7.63;;;8.70;76.50;;;;;;5054200;28;20189;-74
2023/12/16 10:37:58;;;;;;;12.67;7.40;;;8.70;76.50;;;;;;5058347;28;20427;-76
2023/12/16 10:40:24;;;;;;;17.73;7.23;;;8.40;76.40;;;;;;5041966;28;20481;-76
2023/12/16 10:42:50;;;;;;;13.20;7.93;;;8.30;77.30;;;;;;5047319;28;20252;-76
2023/12/16 10:45:17;;;;;;;13.90;7.57;;;8.50;77.60;;;;;;5046556;28;20431;-77
2023/12/16 10:47:45;;;;;;;13.70;7.40;;;8.60;77.30;;;;;;5046138;28;20239;-76
2023/12/16 10:50:13;;;;;;;14.40;8.03;;;8.50;77.00;;;;;;5038639;28;20880;-74
2023/12/16 10:52:41;;;;;;;12.60;7.30;;;8.30;77.00;;;;;;5040983;28;20463;-72
2023/12/16 10:55:19;;;;;;;14.93;7.80;;;8.30;77.70;;;;;;5039534;28;20512;-75
2023/12/16 10:58:01;;;;;;;14.67;7.40;;;8.20;77.30;;;;;;5040577;28;20956;-73
2023/12/16 11:00:31;;;;;;;14.33;6.63;;;8.20;77.60;;;;;;5040573;28;20896;-71
2023/12/16 11:03:27;;;;;;;12.83;7.47;;;8.30;77.70;;;;;;5037198;28;20428;-74
2023/12/16 11:06:12;;;;;;;12.07;7.73;;;8.30;77.30;;;;;;5042796;28;20485;-72
2023/12/16 11:08:39;;;;;;;12.43;7.20;;;8.20;77.00;;;;;;5044797;28;20858;-73
2023/12/16 11:11:06;;;;;;;14.57;7.10;;;8.30;76.50;;;;;;5038450;28;20480;-73
2023/12/16 11:13:32;;;;;;;12.60;6.30;;;8.20;76.40;;;;;;5051433;28;20469;-74
2023/12/16 11:16:17;;;;;;;10.00;5.93;;;8.00;76.10;;;;;;5049042;28;20420;-73
2023/12/16 11:18:48;;;;;;;11.10;6.20;;;8.20;76.50;;;;;;5054304;28;20418;-73
2023/12/16 11:21:19;;;;;;;15.73;6.97;;;8.40;76.10;;;;;;5052908;28;20463;-75
2023/12/16 11:23:45;;;;;;;14.10;7.47;;;8.40;76.20;;;;;;5054730;28;20782;-74
2023/12/16 11:26:11;;;;;;;10.30;6.13;;;8.50;75.90;;;;;;5053268;28;20440;-74
2023/12/16 11:28:37;;;;;;;11.77;6.93;;;8.30;75.80;;;;;;5048891;28;20476;-73
2023/12/16 11:31:04;;;;;;;20.20;8.07;;;7.90;76.70;;;;;;5042482;28;20537;-73
2023/12/16 11:33:46;;;;;;;14.60;7.80;;;7.80;77.40;;;;;;5044245;28;20420;-74
2023/12/16 11:36:14;;;;;;;20.77;8.00;;;7.90;78.00;;;;;;5044939;28;20476;-74
2023/12/16 11:38:46;;;;;;;11.33;6.87;;;8.00;77.70;;;;;;5048917;28;20785;-74
2023/12/16 11:41:37;;;;;;;12.07;6.27;;;8.20;77.60;;;;;;5040345;28;20462;-74
2023/12/16 11:44:03;;;;;;;15.87;6.67;;;8.40;77.00;;;;;;5040449;28;20958;-74
2023/12/16 11:46:33;;;;;;;14.30;7.10;;;8.20;75.50;;;;;;5041972;28;20518;-74
2023/12/16 11:49:04;;;;;;;10.10;6.53;;;8.20;76.10;;;;;;5044875;28;20429;-75
2023/12/16 11:51:31;;;;;;;15.03;6.47;;;8.00;75.90;;;;;;5045556;28;20483;-73
2023/12/16 11:53:59;;;;;;;13.13;7.93;;;8.10;76.10;;;;;;5046515;28;20435;-73
2023/12/16 11:56:24;;;;;;;17.37;7.97;;;8.10;75.90;;;;;;5055208;28;20462;-73
2023/12/16 11:58:57;;;;;;;13.87;6.60;;;8.20;75.90;;;;;;5042488;28;20427;-75
2023/12/16 12:01:24;;;;;;;14.90;7.17;;;8.20;75.80;;;;;;5041769;28;20514;-74
2023/12/16 12:03:50;;;;;;;10.53;7.00;;;8.30;75.50;;;;;;5046585;28;20419;-73
2023/12/16 12:06:16;;;;;;;16.80;7.40;;;8.50;75.40;;;;;;5043170;28;20423;-74
2023/12/16 12:08:44;;;;;;;16.47;8.30;;;8.20;75.20;;;;;;5048888;28;20588;-75
2023/12/16 12:11:11;;;;;;;13.00;7.03;;;8.30;76.10;;;;;;5037845;28;20232;-73
2023/12/16 12:13:36;;;;;;;15.13;8.00;;;8.50;76.10;;;;;;5044904;28;20423;-74
2023/12/16 12:16:03;;;;;;;16.23;8.30;;;8.60;75.10;;;;;;5047170;28;20538;-72
2023/12/16 12:18:28;;;;;;;14.27;8.50;;;8.40;75.50;;;;;;5036278;28;20192;-75
2023/12/16 12:20:55;;;;;;;13.80;7.60;;;8.10;75.70;;;;;;5037041;28;20462;-74
2023/12/16 12:23:20;;;;;;;14.60;8.50;;;8.20;76.50;;;;;;5039563;28;20434;-73
2023/12/16 12:25:56;;;;;;;19.23;8.47;;;8.30;76.40;;;;;;5042119;28;20250;-73
2023/12/16 12:28:22;;;;;;;13.10;7.33;;;7.90;75.10;;;;;;5048915;28;20234;-74
2023/12/16 12:30:48;;;;;;;16.30;7.97;;;7.70;76.10;;;;;;5037411;28;22358;-74
2023/12/16 12:33:14;;;;;;;13.43;7.03;;;7.70;76.40;;;;;;5045260;28;20644;-74
2023/12/16 12:35:39;;;;;;;13.70;7.27;;;7.70;76.10;;;;;;5041483;28;20923;-74
2023/12/16 12:38:05;;;;;;;15.00;7.70;;;7.60;76.20;;;;;;5039359;28;20196;-73
2023/12/16 12:40:31;;;;;;;19.87;8.10;;;7.70;76.40;;;;;;5038978;28;20464;-74
2023/12/16 12:42:57;;;;;;;17.13;7.00;;;7.60;75.90;;;;;;5045800;28;20472;-73